createdAt,value
2023-09-17T00:01:36.308Z,7.10
2023-09-17T00:04:05.657Z,6.22
2023-09-17T00:06:33.357Z,6.80
2023-09-17T00:09:00.849Z,6.78
2023-09-17T00:11:28.518Z,6.80
2023-09-17T00:13:55.883Z,7.07
2023-09-17T00:16:23.588Z,6.18
2023-09-17T00:18:51.102Z,6.78
2023-09-17T00:21:18.896Z,6.72
2023-09-17T00:23:46.224Z,7.07
2023-09-17T00:26:13.832Z,5.82
2023-09-17T00:28:41.189Z,6.97
2023-09-17T00:31:08.591Z,6.90
2023-09-17T00:33:35.882Z,6.50
2023-09-17T00:36:02.584Z,6.60
2023-09-17T00:38:29.367Z,6.65
2023-09-17T00:40:56.342Z,7.10
2023-09-17T00:43:23.823Z,6.32
2023-09-17T00:45:50.589Z,7.28
2023-09-17T00:48:18.097Z,6.57
2023-09-17T00:50:46.117Z,6.35
2023-09-17T00:53:13.865Z,7.18
2023-09-17T00:55:42.857Z,7.07
2023-09-17T00:58:10.897Z,6.45
2023-09-17T01:00:40.263Z,6.57
2023-09-17T01:03:08.250Z,6.97
2023-09-17T01:05:40.991Z,7.15
2023-09-17T01:08:08.983Z,6.87
2023-09-17T01:10:37.504Z,7.43
2023-09-17T01:13:06.535Z,7.80
2023-09-17T01:15:35.486Z,6.70
2023-09-17T01:18:07.417Z,7.07
2023-09-17T01:20:40.867Z,8.20
2023-09-17T01:23:28.907Z,7.72
2023-09-17T01:26:03.522Z,7.60
2023-09-17T01:28:33.362Z,7.72
2023-09-17T01:31:00.190Z,8.15
2023-09-17T01:33:27.011Z,7.88
2023-09-17T01:36:21.070Z,7.10
2023-09-17T01:39:05.660Z,6.93
2023-09-17T01:41:37.787Z,8.43
2023-09-17T01:44:09.480Z,8.27
2023-09-17T01:46:39.885Z,7.90
2023-09-17T01:49:08.308Z,7.45
2023-09-17T01:51:36.389Z,7.75
2023-09-17T01:54:04.296Z,7.45
2023-09-17T01:56:31.967Z,7.28
2023-09-17T01:58:58.781Z,8.55
2023-09-17T02:01:26.024Z,8.45
2023-09-17T02:03:53.215Z,8.13
2023-09-17T02:06:20.780Z,9.00
2023-09-17T02:08:48.407Z,7.80
2023-09-17T02:11:15.333Z,7.90
2023-09-17T02:13:42.108Z,9.45
2023-09-17T02:16:10.135Z,8.30
2023-09-17T02:18:37.171Z,8.45
2023-09-17T02:21:04.960Z,9.40
2023-09-17T02:23:32.277Z,9.05
2023-09-17T02:25:59.682Z,8.27
2023-09-17T02:28:26.930Z,7.93
2023-09-17T02:30:54.268Z,9.20
2023-09-17T02:33:21.655Z,8.90
2023-09-17T02:35:50.976Z,8.50
2023-09-17T02:38:18.966Z,8.93
2023-09-17T02:40:46.381Z,7.63
2023-09-17T02:43:13.791Z,8.60
2023-09-17T02:45:41.196Z,8.45
2023-09-17T02:48:08.394Z,9.07
2023-09-17T02:50:35.225Z,8.45
2023-09-17T02:53:02.350Z,8.90
2023-09-17T02:55:29.912Z,9.00
2023-09-17T02:57:56.876Z,9.40
2023-09-17T03:00:24.115Z,9.45
2023-09-17T03:02:56.278Z,8.77
2023-09-17T03:05:23.706Z,9.02
2023-09-17T03:07:52.092Z,8.82
2023-09-17T03:10:20.762Z,8.98
2023-09-17T03:12:49.193Z,9.63
2023-09-17T03:15:16.063Z,9.52
2023-09-17T03:17:46.083Z,8.80
2023-09-17T03:20:20.274Z,8.65
2023-09-17T03:22:47.698Z,9.85
2023-09-17T03:25:15.087Z,9.90
2023-09-17T03:27:43.765Z,8.88
2023-09-17T03:30:11.778Z,9.20
2023-09-17T03:32:49.652Z,9.65
2023-09-17T03:35:26.126Z,9.13
2023-09-17T03:37:54.225Z,9.27
2023-09-17T03:40:21.883Z,9.38
2023-09-17T03:42:48.868Z,9.25
2023-09-17T03:45:15.944Z,9.85
2023-09-17T03:47:45.518Z,9.30
2023-09-17T03:50:17.364Z,10.05
2023-09-17T03:52:49.270Z,10.07
2023-09-17T03:55:16.244Z,9.82
2023-09-17T03:57:45.252Z,10.90
2023-09-17T04:00:14.019Z,9.80
2023-09-17T04:02:43.571Z,10.93
2023-09-17T04:05:12.799Z,10.15
2023-09-17T04:07:44.700Z,9.77
2023-09-17T04:10:13.709Z,9.65
2023-09-17T04:12:43.207Z,10.50
2023-09-17T04:15:14.914Z,10.00
2023-09-17T04:17:42.462Z,9.65
2023-09-17T04:20:14.919Z,9.80
2023-09-17T04:22:48.230Z,10.35
2023-09-17T04:25:17.126Z,10.70
2023-09-17T04:27:45.747Z,10.43
2023-09-17T04:30:15.261Z,10.85
2023-09-17T04:32:44.504Z,10.55
2023-09-17T04:35:14.324Z,10.35
2023-09-17T04:37:42.310Z,11.25
2023-09-17T04:40:10.745Z,11.15
2023-09-17T04:42:37.612Z,10.55
2023-09-17T04:45:09.742Z,11.43
2023-09-17T04:47:39.614Z,11.10
2023-09-17T04:50:11.990Z,10.48
2023-09-17T04:52:39.355Z,10.32
2023-09-17T04:55:07.710Z,11.07
2023-09-17T04:57:35.104Z,11.50
2023-09-17T05:00:12.550Z,11.13
2023-09-17T05:02:41.279Z,11.38
2023-09-17T05:05:10.304Z,9.75
2023-09-17T05:07:43.225Z,11.15
2023-09-17T05:10:10.886Z,10.65
2023-09-17T05:12:38.517Z,10.15
2023-09-17T05:15:06.573Z,10.95
2023-09-17T05:17:33.886Z,10.95
2023-09-17T05:20:01.928Z,11.52
2023-09-17T05:22:29.483Z,11.05
2023-09-17T05:24:57.071Z,10.63
2023-09-17T05:27:24.573Z,11.13
2023-09-17T05:29:52.172Z,11.27
2023-09-17T05:32:19.404Z,9.95
2023-09-17T05:34:47.080Z,10.68
2023-09-17T05:37:14.538Z,11.27
2023-09-17T05:39:41.833Z,10.93
2023-09-17T05:42:09.676Z,8.55
2023-09-17T05:44:36.951Z,10.85
2023-09-17T05:47:04.649Z,10.57
2023-09-17T05:49:32.476Z,11.05
2023-09-17T05:52:00.610Z,10.63
2023-09-17T05:54:28.538Z,9.77
2023-09-17T05:56:56.078Z,10.50
2023-09-17T05:59:23.422Z,8.95
2023-09-17T06:01:50.877Z,8.07
2023-09-17T06:04:18.910Z,7.05
2023-09-17T06:06:46.395Z,7.20
2023-09-17T06:09:13.368Z,7.32
2023-09-17T06:11:40.939Z,6.93
2023-09-17T06:14:08.582Z,6.50
2023-09-17T06:16:46.485Z,6.05
2023-09-17T06:19:18.307Z,5.95
2023-09-17T06:21:45.876Z,5.80
2023-09-17T06:24:13.591Z,6.20
2023-09-17T06:26:40.807Z,6.40
2023-09-17T06:29:09.427Z,5.43
2023-09-17T06:31:37.441Z,6.10
2023-09-17T06:34:05.233Z,6.25
2023-09-17T06:36:33.034Z,5.88
2023-09-17T06:39:00.538Z,5.82
2023-09-17T06:41:28.837Z,6.68
2023-09-17T06:43:56.625Z,6.07
2023-09-17T06:46:25.798Z,5.60
2023-09-17T06:48:53.836Z,5.80
2023-09-17T06:51:23.952Z,6.18
2023-09-17T06:53:51.851Z,5.97
2023-09-17T06:56:20.541Z,5.53
2023-09-17T06:58:48.050Z,5.88
2023-09-17T07:01:17.096Z,5.63
2023-09-17T07:03:44.639Z,5.63
2023-09-17T07:06:12.169Z,6.05
2023-09-17T07:08:39.575Z,6.55
2023-09-17T07:11:07.160Z,6.10
2023-09-17T07:13:35.303Z,5.55
2023-09-17T07:16:03.382Z,5.93
2023-09-17T07:18:33.358Z,6.00
2023-09-17T07:21:01.070Z,5.43
2023-09-17T07:23:29.217Z,6.15
2023-09-17T07:25:56.465Z,5.50
2023-09-17T07:28:23.953Z,5.82
2023-09-17T07:30:58.063Z,5.75
2023-09-17T07:33:26.041Z,5.60
2023-09-17T07:35:54.308Z,5.70
2023-09-17T07:38:21.432Z,5.25
2023-09-17T07:40:49.877Z,5.78
2023-09-17T07:43:17.361Z,6.15
2023-09-17T07:45:44.835Z,6.25
2023-09-17T07:48:12.411Z,5.75
2023-09-17T07:50:41.693Z,4.85
2023-09-17T07:53:12.292Z,5.18
2023-09-17T07:55:39.340Z,5.75
2023-09-17T07:58:06.234Z,5.65
2023-09-17T08:00:33.877Z,5.60
2023-09-17T08:03:01.311Z,5.50
2023-09-17T08:05:29.334Z,5.63
2023-09-17T08:07:56.847Z,5.53
2023-09-17T08:10:24.242Z,5.30
2023-09-17T08:12:51.808Z,5.10
2023-09-17T08:15:20.682Z,5.03
2023-09-17T08:17:48.119Z,5.75
2023-09-17T08:20:15.972Z,5.00
2023-09-17T08:22:43.736Z,5.15
2023-09-17T08:25:10.971Z,4.78
2023-09-17T08:27:38.320Z,4.82
2023-09-17T08:30:09.096Z,5.20
2023-09-17T08:32:36.593Z,5.00
2023-09-17T08:35:04.818Z,5.00
2023-09-17T08:37:32.323Z,4.47
2023-09-17T08:39:59.803Z,4.15
2023-09-17T08:42:29.518Z,5.05
2023-09-17T08:45:01.406Z,4.65
2023-09-17T08:47:29.426Z,4.70
2023-09-17T08:49:57.122Z,4.15
2023-09-17T08:52:28.557Z,4.20
2023-09-17T08:54:57.232Z,4.72
2023-09-17T08:57:27.685Z,3.85
2023-09-17T09:00:23.407Z,5.40
2023-09-17T09:02:56.407Z,4.90
2023-09-17T09:05:29.309Z,4.20
2023-09-17T09:10:25.871Z,4.63
2023-09-17T09:12:54.146Z,4.10
2023-09-17T09:15:22.692Z,4.10
2023-09-17T09:17:50.763Z,4.72
2023-09-17T09:20:20.889Z,4.45
2023-09-17T09:22:48.778Z,4.20
2023-09-17T09:25:18.408Z,4.70
2023-09-17T09:27:46.287Z,3.78
2023-09-17T09:30:16.258Z,3.72
2023-09-17T09:32:45.187Z,4.10
2023-09-17T09:35:12.805Z,3.50
2023-09-17T09:37:40.963Z,3.42
2023-09-17T09:40:09.411Z,4.03
2023-09-17T09:42:37.569Z,4.07
2023-09-17T09:45:05.597Z,3.65
2023-09-17T09:47:33.464Z,4.10
2023-09-17T09:50:02.858Z,3.65
2023-09-17T09:52:30.568Z,3.50
2023-09-17T09:54:57.917Z,3.65
2023-09-17T09:57:27.423Z,3.67
2023-09-17T09:59:55.688Z,3.20
2023-09-17T10:02:23.437Z,4.05
2023-09-17T10:04:51.561Z,3.33
2023-09-17T10:07:19.809Z,3.42
2023-09-17T10:09:48.547Z,3.70
2023-09-17T10:12:16.228Z,3.60
2023-09-17T10:14:44.608Z,3.40
2023-09-17T10:17:12.409Z,3.47
2023-09-17T10:19:41.080Z,3.60
2023-09-17T10:22:11.064Z,3.95
2023-09-17T10:24:40.314Z,3.70
2023-09-17T10:27:08.935Z,3.30
2023-09-17T10:29:38.157Z,3.42
2023-09-17T10:32:06.457Z,3.50
2023-09-17T10:34:43.123Z,3.10
2023-09-17T10:37:12.030Z,3.60
2023-09-17T10:39:41.038Z,3.20
2023-09-17T10:42:09.852Z,3.63
2023-09-17T10:44:38.752Z,3.63
2023-09-17T10:47:12.361Z,4.00
2023-09-17T10:49:40.807Z,3.40
2023-09-17T10:52:09.598Z,3.30
2023-09-17T10:54:37.644Z,4.20
2023-09-17T10:57:16.344Z,3.30
2023-09-17T10:59:44.801Z,3.63
2023-09-17T11:02:14.751Z,3.40
2023-09-17T11:04:43.205Z,3.00
2023-09-17T11:07:11.674Z,2.65
2023-09-17T11:09:39.014Z,3.15
2023-09-17T11:12:08.597Z,2.80
2023-09-17T11:14:36.445Z,2.80
2023-09-17T11:17:06.024Z,3.97
2023-09-17T11:19:34.930Z,2.85
2023-09-17T11:22:02.371Z,3.15
2023-09-17T11:24:30.274Z,2.70
2023-09-17T11:26:58.834Z,3.28
2023-09-17T11:29:58.725Z,3.15
2023-09-17T11:32:26.736Z,3.40
2023-09-17T11:34:54.726Z,3.42
2023-09-17T11:37:22.639Z,3.42
2023-09-17T11:39:54.293Z,3.08
2023-09-17T11:42:24.670Z,3.05
2023-09-17T11:44:54.196Z,2.80
2023-09-17T11:47:22.468Z,2.83
2023-09-17T11:49:52.022Z,3.03
2023-09-17T11:52:19.648Z,2.53
2023-09-17T11:54:51.193Z,2.50
2023-09-17T11:57:28.682Z,2.63
2023-09-17T11:59:57.315Z,2.80
2023-09-17T12:02:25.672Z,3.00
2023-09-17T12:04:54.852Z,2.33
2023-09-17T12:07:23.018Z,3.08
2023-09-17T12:10:02.849Z,2.55
2023-09-17T12:12:34.172Z,3.00
2023-09-17T12:15:01.764Z,2.92
2023-09-17T12:17:29.544Z,2.72
2023-09-17T12:20:57.956Z,2.83
2023-09-17T12:23:56.344Z,2.38
2023-09-17T12:27:17.881Z,2.92
2023-09-17T12:29:45.322Z,2.85
2023-09-17T12:32:13.493Z,2.65
2023-09-17T12:34:41.044Z,2.25
2023-09-17T12:37:08.695Z,2.33
2023-09-17T12:39:36.570Z,2.60
2023-09-17T12:42:05.184Z,2.70
2023-09-17T12:44:32.677Z,2.60
2023-09-17T12:47:00.398Z,2.33
2023-09-17T12:49:28.116Z,2.28
2023-09-17T12:51:55.734Z,2.70
2023-09-17T12:54:24.008Z,2.38
2023-09-17T12:56:52.277Z,2.63
2023-09-17T12:59:40.181Z,3.00
2023-09-17T13:02:09.042Z,3.08
2023-09-17T13:04:37.881Z,2.72
2023-09-17T13:07:07.302Z,2.83
2023-09-17T13:09:35.098Z,2.97
2023-09-17T13:12:02.833Z,2.80
2023-09-17T13:14:32.907Z,2.70
2023-09-17T13:17:00.126Z,2.63
2023-09-17T13:19:27.188Z,2.75
2023-09-17T13:21:55.072Z,2.67
2023-09-17T13:24:22.913Z,3.20
2023-09-17T13:26:49.759Z,3.30
2023-09-17T13:29:17.850Z,2.83
2023-09-17T13:31:50.410Z,3.35
2023-09-17T13:34:21.034Z,2.95
2023-09-17T13:36:49.134Z,3.10
2023-09-17T13:39:15.906Z,3.00
2023-09-17T13:41:44.545Z,3.33
2023-09-17T13:44:12.390Z,3.35
2023-09-17T13:46:47.284Z,2.92
2023-09-17T13:49:14.684Z,3.55
2023-09-17T13:51:42.694Z,3.33
2023-09-17T13:54:10.244Z,3.20
2023-09-17T13:56:37.562Z,3.40
2023-09-17T13:59:05.346Z,3.60
2023-09-17T14:01:32.885Z,3.00
2023-09-17T14:04:00.585Z,3.10
2023-09-17T14:06:28.009Z,3.47
2023-09-17T14:08:55.860Z,3.40
2023-09-17T14:11:25.591Z,3.55
2023-09-17T14:13:53.694Z,3.50
2023-09-17T14:16:21.459Z,3.58
2023-09-17T14:18:53.035Z,3.20
2023-09-17T14:21:20.513Z,3.92
2023-09-17T14:23:48.082Z,3.00
2023-09-17T14:26:15.013Z,2.78
2023-09-17T14:28:42.404Z,2.90
2023-09-17T14:31:09.228Z,2.50
2023-09-17T14:33:36.144Z,3.30
2023-09-17T14:36:04.291Z,3.08
2023-09-17T14:38:31.827Z,3.33
2023-09-17T14:40:59.095Z,3.25
2023-09-17T14:43:25.937Z,3.00
2023-09-17T14:45:52.757Z,3.35
2023-09-17T14:48:19.947Z,2.97
2023-09-17T14:50:47.210Z,3.13
2023-09-17T14:53:15.038Z,176.05
2023-09-17T14:55:42.826Z,28.48
2023-09-17T14:58:10.373Z,4.80
2023-09-17T15:00:37.219Z,98.68
2023-09-17T15:03:05.330Z,94.05
2023-09-17T15:05:35.322Z,30.27
2023-09-17T15:08:04.118Z,16.13
2023-09-17T15:10:31.078Z,75.22
2023-09-17T15:12:59.373Z,28.35
2023-09-17T15:15:26.230Z,9.13
2023-09-17T15:17:54.071Z,44.20
2023-09-17T15:20:21.795Z,208.73
2023-09-17T15:22:48.838Z,134.40
2023-09-17T15:25:17.109Z,75.15
2023-09-17T15:27:45.204Z,149.13
2023-09-17T15:30:13.427Z,193.95
2023-09-17T15:32:41.831Z,84.20
2023-09-17T15:35:12.424Z,89.18
2023-09-17T15:37:39.405Z,15.20
2023-09-17T15:40:07.416Z,22.27
2023-09-17T15:42:35.546Z,12.38
2023-09-17T15:45:02.789Z,9.02
2023-09-17T15:47:29.747Z,11.55
2023-09-17T15:49:57.357Z,24.90
2023-09-17T15:52:24.659Z,5.35
2023-09-17T15:54:52.211Z,3.60
2023-09-17T15:57:19.861Z,3.60
2023-09-17T15:59:48.069Z,4.03
2023-09-17T16:02:15.934Z,4.05
2023-09-17T16:04:43.047Z,4.95
2023-09-17T16:07:10.340Z,4.38
2023-09-17T16:09:37.872Z,6.93
2023-09-17T16:12:04.754Z,6.88
2023-09-17T16:14:31.533Z,6.40
2023-09-17T16:17:02.054Z,5.72
2023-09-17T16:19:30.402Z,5.53
2023-09-17T16:21:58.007Z,4.53
2023-09-17T16:24:24.984Z,5.30
2023-09-17T16:26:51.819Z,4.80
2023-09-17T16:29:18.692Z,5.40
2023-09-17T16:31:45.827Z,5.90
2023-09-17T16:34:13.366Z,6.22
2023-09-17T16:36:41.511Z,6.18
2023-09-17T16:39:09.475Z,6.20
2023-09-17T16:41:36.362Z,6.03
2023-09-17T16:44:04.468Z,6.65
2023-09-17T16:46:31.567Z,6.43
2023-09-17T16:48:59.172Z,6.82
2023-09-17T16:51:25.937Z,6.75
2023-09-17T16:53:53.652Z,7.22
2023-09-17T16:56:20.684Z,7.10
2023-09-17T16:58:48.227Z,7.03
2023-09-17T17:01:18.318Z,6.80
2023-09-17T17:03:45.778Z,6.53
2023-09-17T17:06:14.465Z,6.25
2023-09-17T17:08:42.041Z,6.72
2023-09-17T17:11:09.439Z,5.57
2023-09-17T17:13:37.072Z,5.80
2023-09-17T17:16:04.608Z,5.07
2023-09-17T17:18:32.278Z,5.55
2023-09-17T17:20:59.374Z,5.05
2023-09-17T17:23:27.083Z,5.78
2023-09-17T17:25:54.675Z,5.72
2023-09-17T17:28:22.073Z,5.30
2023-09-17T17:30:50.855Z,5.22
2023-09-17T17:33:18.241Z,5.85
2023-09-17T17:35:46.043Z,5.93
2023-09-17T17:38:13.754Z,5.90
2023-09-17T17:40:44.198Z,5.63
2023-09-17T17:43:12.051Z,5.10
2023-09-17T17:45:39.559Z,5.63
2023-09-17T17:48:07.030Z,5.43
2023-09-17T17:50:34.589Z,5.43
2023-09-17T17:53:02.681Z,5.85
2023-09-17T17:55:29.630Z,5.43
2023-09-17T17:57:56.696Z,6.30
2023-09-17T18:00:24.249Z,7.43
2023-09-17T18:02:52.000Z,7.65
2023-09-17T18:05:19.776Z,7.47
2023-09-17T18:07:46.768Z,7.68
2023-09-17T18:10:15.508Z,7.60
2023-09-17T18:12:43.334Z,8.07
2023-09-17T18:15:11.533Z,7.13
2023-09-17T18:17:39.416Z,7.22
2023-09-17T18:20:07.043Z,7.40
2023-09-17T18:22:34.476Z,7.30
2023-09-17T18:25:02.091Z,6.32
2023-09-17T18:27:29.512Z,6.53
2023-09-17T18:29:57.039Z,6.35
2023-09-17T18:32:25.650Z,6.63
2023-09-17T18:34:55.351Z,6.60
2023-09-17T18:37:23.073Z,6.72
2023-09-17T18:39:51.882Z,6.95
2023-09-17T18:42:21.306Z,6.72
2023-09-17T18:44:48.918Z,6.05
2023-09-17T18:47:16.560Z,6.45
2023-09-17T18:49:45.438Z,6.80
2023-09-17T18:52:13.295Z,7.38
2023-09-17T18:54:40.420Z,7.15
2023-09-17T18:57:07.732Z,6.05
2023-09-17T18:59:35.234Z,7.13
2023-09-17T19:02:02.440Z,7.22
2023-09-17T19:04:30.747Z,6.80
2023-09-17T19:06:58.426Z,7.18
2023-09-17T19:09:25.392Z,6.88
2023-09-17T19:11:53.137Z,7.28
2023-09-17T19:14:20.861Z,5.53
2023-09-17T19:16:48.356Z,6.70
2023-09-17T19:19:16.188Z,6.30
2023-09-17T19:21:43.617Z,6.45
2023-09-17T19:24:10.960Z,6.18
2023-09-17T19:26:38.307Z,6.07
2023-09-17T19:29:05.731Z,6.10
2023-09-17T19:31:33.181Z,6.50
2023-09-17T19:34:02.143Z,6.30
2023-09-17T19:36:29.507Z,6.18
2023-09-17T19:38:57.833Z,6.25
2023-09-17T19:41:25.381Z,5.93
2023-09-17T19:43:53.198Z,6.88
2023-09-17T19:46:21.478Z,6.03
2023-09-17T19:48:49.813Z,6.05
2023-09-17T19:51:17.617Z,6.10
2023-09-17T19:53:44.609Z,6.88
2023-09-17T19:56:12.145Z,6.35
2023-09-17T19:58:39.569Z,6.78
2023-09-17T20:01:07.158Z,5.93
2023-09-17T20:03:34.652Z,5.95
2023-09-17T20:06:02.113Z,6.65
2023-09-17T20:08:29.664Z,7.05
2023-09-17T20:10:57.712Z,6.53
2023-09-17T20:13:25.858Z,5.40
2023-09-17T20:15:52.780Z,5.78
2023-09-17T20:18:20.203Z,7.25
2023-09-17T20:20:48.176Z,7.07
2023-09-17T20:23:16.026Z,6.63
2023-09-17T20:25:43.658Z,5.93
2023-09-17T20:28:11.759Z,6.38
2023-09-17T20:30:42.464Z,5.88
2023-09-17T20:33:09.355Z,6.25
2023-09-17T20:35:38.464Z,6.03
2023-09-17T20:38:06.489Z,6.85
2023-09-17T20:40:34.105Z,6.15
2023-09-17T20:43:02.391Z,5.93
2023-09-17T20:45:29.822Z,6.75
2023-09-17T20:47:57.976Z,6.30
2023-09-17T20:50:26.486Z,5.82
2023-09-17T20:52:54.205Z,5.80
2023-09-17T20:55:21.447Z,6.15
2023-09-17T20:57:49.179Z,6.57
2023-09-17T21:00:16.961Z,6.57
2023-09-17T21:02:44.710Z,6.38
2023-09-17T21:05:13.861Z,6.30
2023-09-17T21:07:42.324Z,6.55
2023-09-17T21:10:10.988Z,6.55
2023-09-17T21:12:38.442Z,5.85
2023-09-17T21:15:07.936Z,6.93
2023-09-17T21:17:37.392Z,6.82
2023-09-17T21:20:08.870Z,6.47
2023-09-17T21:22:39.425Z,6.45
2023-09-17T21:25:07.522Z,7.35
2023-09-17T21:27:35.477Z,6.20
2023-09-17T21:30:03.354Z,6.82
2023-09-17T21:32:31.479Z,6.63
2023-09-17T21:34:59.013Z,6.95
2023-09-17T21:37:26.344Z,7.20
2023-09-17T21:39:54.036Z,7.57
2023-09-17T21:42:21.640Z,6.32
2023-09-17T21:44:48.883Z,6.93
2023-09-17T21:47:16.372Z,7.50
2023-09-17T21:49:43.855Z,6.95
2023-09-17T21:52:11.115Z,7.13
2023-09-17T21:54:38.540Z,7.80
2023-09-17T21:57:19.956Z,7.63
2023-09-17T21:59:48.546Z,7.40
2023-09-17T22:02:16.461Z,7.45
2023-09-17T22:04:44.137Z,8.48
2023-09-17T22:07:11.507Z,7.82
2023-09-17T22:09:40.624Z,7.95
2023-09-17T22:12:08.955Z,9.23
2023-09-17T22:14:36.414Z,7.78
2023-09-17T22:17:04.408Z,8.05
2023-09-17T22:19:32.091Z,8.50
2023-09-17T22:21:59.543Z,8.05
2023-09-17T22:24:27.371Z,8.70
2023-09-17T22:26:56.607Z,8.82
2023-09-17T22:29:24.106Z,8.65
2023-09-17T22:31:51.386Z,8.75
2023-09-17T22:34:18.647Z,8.30
2023-09-17T22:36:46.016Z,9.60
2023-09-17T22:39:13.482Z,9.68
2023-09-17T22:41:41.130Z,9.40
2023-09-17T22:44:22.729Z,9.07
2023-09-17T22:46:50.618Z,9.32
2023-09-17T22:49:17.886Z,10.25
2023-09-17T22:51:45.064Z,10.15
2023-09-17T22:54:12.268Z,9.55
2023-09-17T22:56:39.813Z,10.20
2023-09-17T22:59:07.404Z,10.40
2023-09-17T23:01:36.169Z,10.30
2023-09-17T23:04:03.416Z,10.70
2023-09-17T23:06:30.780Z,10.43
2023-09-17T23:09:03.011Z,10.80
2023-09-17T23:11:30.808Z,10.57
2023-09-17T23:13:58.408Z,11.18
2023-09-17T23:16:25.596Z,11.20
2023-09-17T23:18:55.667Z,11.00
2023-09-17T23:21:22.573Z,10.55
2023-09-17T23:23:49.760Z,12.23
2023-09-17T23:26:18.787Z,10.68
2023-09-17T23:28:47.865Z,11.13
2023-09-17T23:31:15.372Z,10.48
2023-09-17T23:33:42.857Z,11.27
2023-09-17T23:36:10.387Z,12.20
2023-09-17T23:38:37.624Z,11.07
2023-09-17T23:41:05.074Z,11.35
2023-09-17T23:43:34.434Z,11.73
2023-09-17T23:46:02.213Z,11.50
2023-09-17T23:48:29.647Z,12.23
2023-09-17T23:50:56.870Z,11.63
2023-09-17T23:53:25.248Z,11.68
2023-09-17T23:55:52.348Z,11.95
2023-09-17T23:58:20.268Z,13.18
